createdAt,value
2023-03-10T00:00:14.374Z,3.35
2023-03-10T00:04:20.744Z,4.00
2023-03-10T00:08:27.136Z,3.33
2023-03-10T00:12:29.468Z,3.70
2023-03-10T00:16:31.687Z,3.53
2023-03-10T00:20:33.855Z,4.05
2023-03-10T00:24:36.189Z,4.53
2023-03-10T00:28:38.982Z,3.50
2023-03-10T00:32:41.229Z,3.22
2023-03-10T00:36:43.462Z,4.20
2023-03-10T00:40:45.924Z,3.90
2023-03-10T00:44:48.620Z,3.70
2023-03-10T00:48:51.425Z,3.28
2023-03-10T00:52:54.162Z,4.38
2023-03-10T00:56:56.518Z,4.20
2023-03-10T01:00:59.655Z,3.50
2023-03-10T01:05:02.093Z,3.97
2023-03-10T01:09:06.722Z,3.38
2023-03-10T01:13:11.773Z,3.67
2023-03-10T01:17:13.958Z,3.83
2023-03-10T01:21:20.458Z,3.83
2023-03-10T01:25:22.627Z,3.90
2023-03-10T01:29:24.859Z,3.58
2023-03-10T01:33:27.361Z,3.55
2023-03-10T01:37:29.582Z,4.10
2023-03-10T01:41:31.806Z,4.30
2023-03-10T01:45:34.289Z,4.68
2023-03-10T01:49:40.766Z,4.13
2023-03-10T01:53:43.406Z,5.35
2023-03-10T01:57:52.679Z,4.35
2023-03-10T02:01:57.125Z,4.10
2023-03-10T02:06:09.296Z,4.57
2023-03-10T02:10:14.825Z,4.80
2023-03-10T02:14:18.606Z,3.90
2023-03-10T02:18:22.380Z,3.95
2023-03-10T02:22:24.626Z,4.95
2023-03-10T02:26:35.720Z,4.65
2023-03-10T02:30:41.494Z,4.60
2023-03-10T02:34:44.248Z,4.30
2023-03-10T02:38:46.894Z,4.47
2023-03-10T02:42:49.040Z,4.63
2023-03-10T02:46:51.741Z,4.57
2023-03-10T02:50:55.100Z,4.70
2023-03-10T02:54:58.121Z,4.17
2023-03-10T02:59:03.461Z,4.15
2023-03-10T03:03:08.748Z,4.40
2023-03-10T03:07:11.304Z,3.78
2023-03-10T03:11:19.539Z,3.70
2023-03-10T03:15:24.168Z,3.60
2023-03-10T03:19:29.471Z,3.75
2023-03-10T03:23:33.780Z,4.00
2023-03-10T03:27:37.493Z,3.33
2023-03-10T03:31:41.092Z,3.50
2023-03-10T03:35:48.290Z,3.15
2023-03-10T03:39:52.900Z,3.20
2023-03-10T03:43:55.089Z,2.92
2023-03-10T03:47:57.682Z,3.17
2023-03-10T03:52:01.477Z,2.63
2023-03-10T03:56:04.517Z,2.75
2023-03-10T04:00:12.994Z,2.35
2023-03-10T04:04:20.033Z,2.17
2023-03-10T04:08:24.282Z,2.20
2023-03-10T04:12:27.732Z,2.38
2023-03-10T04:16:29.889Z,2.60
2023-03-10T04:20:32.308Z,3.00
2023-03-10T04:24:34.411Z,2.72
2023-03-10T04:28:37.799Z,2.63
2023-03-10T04:32:40.892Z,3.53
2023-03-10T04:36:44.287Z,3.00
2023-03-10T04:40:53.733Z,3.38
2023-03-10T04:44:56.233Z,2.97
2023-03-10T04:48:59.176Z,3.03
2023-03-10T04:53:01.366Z,3.40
2023-03-10T04:57:05.875Z,3.28
2023-03-10T05:01:14.127Z,3.00
2023-03-10T05:05:23.936Z,3.58
2023-03-10T05:09:26.764Z,2.97
2023-03-10T05:13:31.730Z,3.00
2023-03-10T05:17:34.683Z,3.35
2023-03-10T05:21:37.861Z,2.80
2023-03-10T05:25:40.427Z,3.40
2023-03-10T05:29:42.561Z,3.63
2023-03-10T05:33:53.676Z,2.65
2023-03-10T05:37:56.567Z,3.55
2023-03-10T05:41:58.850Z,3.05
2023-03-10T05:46:04.678Z,3.88
2023-03-10T05:50:10.767Z,3.50
2023-03-10T05:54:12.921Z,4.50
2023-03-10T05:58:15.045Z,3.97
2023-03-10T06:02:17.076Z,4.75
2023-03-10T06:06:19.208Z,3.63
2023-03-10T06:10:21.336Z,3.70
2023-03-10T06:19:07.585Z,3.60
2023-03-10T06:23:09.998Z,4.00
2023-03-10T06:27:12.176Z,3.85
2023-03-10T06:31:20.675Z,4.35
2023-03-10T06:35:23.017Z,3.90
2023-03-10T06:39:29.076Z,3.60
2023-03-10T06:43:32.506Z,3.45
2023-03-10T06:47:35.440Z,3.57
2023-03-10T06:51:40.036Z,3.55
2023-03-10T06:55:47.487Z,3.88
2023-03-10T06:59:50.696Z,3.92
2023-03-10T07:03:54.549Z,3.67
2023-03-10T07:07:56.939Z,3.43
2023-03-10T07:12:02.699Z,3.08
2023-03-10T07:16:19.133Z,4.60
2023-03-10T07:20:24.854Z,6.70
2023-03-10T07:24:27.979Z,6.95
2023-03-10T07:28:31.786Z,6.38
2023-03-10T07:32:39.385Z,5.43
2023-03-10T07:36:47.051Z,6.50
2023-03-10T07:40:52.187Z,6.30
2023-03-10T07:45:00.189Z,7.05
2023-03-10T07:49:05.103Z,6.32
2023-03-10T07:53:07.215Z,6.43
2023-03-10T07:57:09.402Z,4.63
2023-03-10T08:01:17.666Z,3.88
2023-03-10T08:05:19.814Z,3.58
2023-03-10T08:09:21.855Z,3.03
2023-03-10T08:13:23.911Z,2.85
2023-03-10T08:17:30.908Z,3.22
2023-03-10T08:21:33.173Z,3.08
2023-03-10T08:25:35.543Z,2.58
2023-03-10T08:29:37.806Z,2.45
2023-03-10T08:33:41.536Z,2.60
2023-03-10T08:37:45.139Z,2.40
2023-03-10T08:41:49.475Z,3.75
2023-03-10T08:45:56.328Z,3.58
2023-03-10T08:49:58.917Z,6.20
2023-03-10T08:54:01.336Z,3.22
2023-03-10T08:58:03.820Z,3.00
2023-03-10T09:02:06.741Z,2.45
2023-03-10T09:06:11.632Z,2.95
2023-03-10T09:14:17.587Z,2.45
2023-03-10T09:18:21.786Z,2.50
2023-03-10T09:22:24.117Z,3.15
2023-03-10T09:26:26.589Z,2.85
2023-03-10T09:30:31.131Z,3.00
2023-03-10T09:34:34.609Z,2.70
2023-03-10T09:38:37.504Z,2.50
2023-03-10T09:42:43.259Z,1.92
2023-03-10T09:46:57.129Z,2.65
2023-03-10T09:51:05.983Z,2.13
2023-03-10T09:55:16.769Z,3.15
2023-03-10T09:59:37.693Z,2.20
2023-03-10T10:03:52.516Z,2.78
2023-03-10T10:07:59.001Z,2.47
2023-03-10T10:12:15.166Z,2.60
2023-03-10T10:16:33.649Z,1.20
2023-03-10T10:20:54.093Z,1.33
2023-03-10T10:25:10.168Z,1.42
2023-03-10T10:29:39.462Z,1.45
2023-03-10T10:33:56.128Z,1.00
2023-03-10T10:38:03.980Z,0.93
2023-03-10T10:42:24.941Z,1.50
2023-03-10T10:46:30.660Z,1.05
2023-03-10T10:50:36.191Z,1.02
2023-03-10T10:58:46.123Z,1.40
2023-03-10T11:02:49.044Z,1.10
2023-03-10T11:06:53.750Z,1.23
2023-03-10T11:11:04.613Z,1.38
2023-03-10T11:15:09.898Z,0.95
2023-03-10T11:19:21.553Z,1.40
2023-03-10T11:23:53.754Z,1.30
2023-03-10T11:28:23.257Z,1.38
2023-03-10T11:32:29.607Z,1.20
2023-03-10T11:36:57.345Z,1.58
2023-03-10T11:41:06.672Z,1.77
2023-03-10T11:45:53.689Z,1.40
2023-03-10T11:50:34.727Z,1.38
2023-03-10T11:54:45.460Z,1.95
2023-03-10T11:58:51.749Z,1.98
2023-03-10T12:03:12.170Z,1.63
2023-03-10T12:07:21.820Z,1.63
2023-03-10T12:11:27.259Z,3.65
2023-03-10T12:15:37.027Z,2.38
2023-03-10T12:20:13.526Z,1.85
2023-03-10T12:24:45.186Z,2.03
2023-03-10T12:28:47.344Z,2.08
2023-03-10T12:32:49.688Z,2.88
2023-03-10T12:36:54.178Z,1.70
2023-03-10T12:40:57.276Z,1.92
2023-03-10T12:45:31.570Z,1.40
2023-03-10T12:49:56.993Z,1.42
2023-03-10T12:54:29.133Z,1.88
2023-03-10T12:58:31.228Z,1.73
2023-03-10T13:02:44.411Z,1.60
2023-03-10T13:06:48.693Z,1.58
2023-03-10T13:10:56.435Z,2.28
2023-03-10T13:15:00.887Z,1.90
2023-03-10T13:19:04.558Z,1.63
2023-03-10T13:23:18.315Z,2.00
2023-03-10T13:27:20.789Z,3.47
2023-03-10T13:31:28.362Z,2.92
2023-03-10T13:35:36.108Z,3.20
2023-03-10T13:39:38.387Z,3.00
2023-03-10T13:43:42.954Z,3.28
2023-03-10T13:47:45.136Z,3.00
2023-03-10T13:52:05.782Z,3.83
2023-03-10T13:56:21.831Z,3.17
2023-03-10T14:00:26.293Z,2.75
2023-03-10T14:04:48.328Z,3.15
2023-03-10T14:08:51.692Z,3.17
2023-03-10T14:12:54.670Z,3.72
2023-03-10T14:16:59.235Z,3.47
2023-03-10T14:21:31.303Z,2.80
2023-03-10T14:25:33.628Z,3.67
2023-03-10T14:29:35.803Z,4.15
2023-03-10T14:33:37.947Z,4.10
2023-03-10T14:37:40.187Z,3.20
2023-03-10T14:41:42.564Z,3.13
2023-03-10T14:45:46.685Z,3.85
2023-03-10T14:53:53.204Z,4.32
2023-03-10T15:02:29.407Z,2.95
2023-03-10T15:06:32.061Z,4.10
2023-03-10T15:10:49.202Z,2.50
2023-03-10T15:14:54.171Z,3.00
2023-03-10T15:18:56.612Z,2.80
2023-03-10T15:22:59.152Z,3.45
2023-03-10T15:27:01.887Z,3.50
2023-03-10T15:31:08.158Z,4.00
2023-03-10T15:35:12.449Z,3.33
2023-03-10T15:39:31.437Z,4.32
2023-03-10T15:43:37.768Z,11.48
2023-03-10T15:47:40.446Z,7.95
2023-03-10T15:51:42.621Z,6.80
2023-03-10T15:55:44.959Z,3.67
2023-03-10T15:59:47.413Z,4.40
2023-03-10T16:03:49.572Z,8.70
2023-03-10T16:07:52.214Z,4.22
2023-03-10T16:11:54.758Z,4.28
2023-03-10T16:15:58.493Z,4.60
2023-03-10T16:20:06.989Z,3.80
2023-03-10T16:24:09.415Z,5.03
2023-03-10T16:28:12.266Z,4.00
2023-03-10T16:32:15.164Z,5.07
2023-03-10T16:36:20.996Z,4.30
2023-03-10T16:40:23.973Z,4.55
2023-03-10T16:44:26.895Z,5.35
2023-03-10T16:48:30.085Z,4.68
2023-03-10T16:52:40.200Z,4.68
2023-03-10T16:56:45.348Z,10.75
2023-03-10T17:00:47.896Z,4.78
2023-03-10T17:04:53.962Z,4.53
2023-03-10T17:08:58.270Z,4.53
2023-03-10T17:13:00.728Z,3.67
2023-03-10T17:17:03.662Z,4.35
2023-03-10T17:21:21.947Z,4.35
2023-03-10T17:25:25.010Z,4.35
2023-03-10T17:29:28.361Z,4.40
2023-03-10T17:33:36.105Z,4.13
2023-03-10T17:37:38.743Z,4.50
2023-03-10T17:41:41.920Z,3.58
2023-03-10T17:45:45.037Z,3.97
2023-03-10T17:49:47.930Z,3.67
2023-03-10T17:53:53.528Z,3.88
2023-03-10T17:57:59.323Z,3.95
2023-03-10T18:02:03.977Z,4.07
2023-03-10T18:06:13.765Z,3.72
2023-03-10T18:10:22.844Z,4.82
2023-03-10T18:14:26.288Z,4.10
2023-03-10T18:18:31.145Z,4.43
2023-03-10T18:22:39.899Z,4.57
2023-03-10T18:26:46.441Z,3.78
2023-03-10T18:30:53.251Z,5.20
2023-03-10T18:35:00.139Z,5.00
2023-03-10T18:39:04.097Z,5.00
2023-03-10T18:43:06.745Z,4.40
2023-03-10T18:47:08.840Z,4.55
2023-03-10T18:51:13.501Z,3.92
2023-03-10T18:55:16.739Z,4.53
2023-03-10T18:59:19.550Z,4.05
2023-03-10T19:03:22.347Z,4.53
2023-03-10T19:07:25.571Z,5.03
2023-03-10T19:11:35.576Z,4.35
2023-03-10T19:15:38.841Z,3.78
2023-03-10T19:19:41.726Z,3.78
2023-03-10T19:23:45.750Z,4.53
2023-03-10T19:27:49.542Z,4.63
2023-03-10T19:31:51.916Z,5.32
2023-03-10T19:36:02.220Z,5.40
2023-03-10T19:40:08.481Z,5.30
2023-03-10T19:44:10.996Z,6.53
2023-03-10T19:48:14.384Z,5.83
2023-03-10T19:52:18.117Z,5.75
2023-03-10T19:56:21.987Z,5.05
2023-03-10T20:00:31.175Z,5.47
2023-03-10T20:04:35.451Z,4.95
2023-03-10T20:08:38.353Z,5.63
2023-03-10T20:12:40.765Z,5.25
2023-03-10T20:16:43.251Z,5.57
2023-03-10T20:20:45.522Z,5.85
2023-03-10T20:24:47.840Z,6.05
2023-03-10T20:28:50.653Z,5.53
2023-03-10T20:32:56.663Z,5.55
2023-03-10T20:37:01.951Z,5.95
2023-03-10T20:41:05.926Z,6.10
2023-03-10T20:45:10.428Z,4.63
2023-03-10T20:49:12.881Z,5.68
2023-03-10T20:53:15.278Z,4.45
2023-03-10T20:57:17.571Z,5.45
2023-03-10T21:01:21.847Z,5.32
2023-03-10T21:09:27.772Z,6.68
2023-03-10T21:13:30.855Z,6.10
2023-03-10T21:17:33.496Z,6.88
2023-03-10T21:21:36.872Z,7.95
2023-03-10T21:25:40.537Z,6.22
2023-03-10T21:29:43.281Z,5.32
2023-03-10T21:33:45.736Z,5.50
2023-03-10T21:37:48.595Z,4.85
2023-03-10T21:41:51.124Z,5.50
2023-03-10T21:45:53.436Z,6.53
2023-03-10T21:49:55.880Z,5.65
2023-03-10T21:53:58.342Z,5.85
2023-03-10T21:58:01.463Z,4.40
2023-03-10T22:02:04.161Z,6.38
2023-03-10T22:06:06.564Z,4.38
2023-03-10T22:10:09.618Z,4.75
2023-03-10T22:14:12.015Z,4.60
2023-03-10T22:18:14.325Z,4.30
2023-03-10T22:22:16.893Z,5.97
2023-03-10T22:26:19.331Z,5.60
2023-03-10T22:30:24.431Z,4.75
2023-03-10T22:34:27.207Z,4.95
2023-03-10T22:38:29.662Z,4.53
2023-03-10T22:42:32.853Z,4.30
2023-03-10T22:46:35.370Z,4.38
2023-03-10T22:50:40.496Z,6.78
2023-03-10T22:54:43.435Z,6.05
2023-03-10T22:58:46.043Z,5.85
2023-03-10T23:02:50.480Z,5.60
2023-03-10T23:06:52.692Z,6.18
2023-03-10T23:10:55.291Z,5.60
2023-03-10T23:14:57.739Z,5.75
2023-03-10T23:19:00.887Z,6.85
2023-03-10T23:23:06.200Z,5.25
2023-03-10T23:27:08.398Z,4.90
2023-03-10T23:31:15.653Z,6.20
2023-03-10T23:35:22.215Z,5.95
2023-03-10T23:39:25.195Z,7.07
2023-03-10T23:43:28.049Z,5.88
2023-03-10T23:47:30.200Z,5.65
2023-03-10T23:51:32.433Z,6.05
2023-03-10T23:55:37.809Z,4.50
2023-03-10T23:59:41.764Z,5.07
